sensor_id;sensor_type;location;lat;lon;timestamp;temperature;humidity
17968;DHT22;9109;48.050;11.696;2023-07-13T03:48:27;19.60;99.90
17968;DHT22;9109;48.050;11.696;2023-07-13T03:51:29;19.60;99.90
17968;DHT22;9109;48.050;11.696;2023-07-13T03:54:32;19.60;99.90
17968;DHT22;9109;48.050;11.696;2023-07-13T03:57:34;19.60;99.90
17968;DHT22;9109;48.050;11.696;2023-07-13T04:00:39;19.50;99.90
17968;DHT22;9109;48.050;11.696;2023-07-13T04:03:43;19.40;99.90
17968;DHT22;9109;48.050;11.696;2023-07-13T04:06:47;19.50;99.90
17968;DHT22;9109;48.050;11.696;2023-07-13T04:09:49;19.50;99.90
17968;DHT22;9109;48.050;11.696;2023-07-13T04:12:51;19.60;99.90
17968;DHT22;9109;48.050;11.696;2023-07-13T04:15:54;19.60;99.90
17968;DHT22;9109;48.050;11.696;2023-07-13T04:19:04;19.70;99.90
17968;DHT22;9109;48.050;11.696;2023-07-13T04:22:10;19.70;99.90
17968;DHT22;9109;48.050;11.696;2023-07-13T04:25:23;19.70;99.90
17968;DHT22;9109;48.050;11.696;2023-07-13T04:28:33;19.70;99.90
17968;DHT22;9109;48.050;11.696;2023-07-13T04:38:43;19.40;99.90
17968;DHT22;9109;48.050;11.696;2023-07-13T04:41:46;19.40;99.90
17968;DHT22;9109;48.050;11.696;2023-07-13T04:44:49;19.40;99.90
17968;DHT22;9109;48.050;11.696;2023-07-13T04:47:51;19.30;99.90
17968;DHT22;9109;48.050;11.696;2023-07-13T04:50:56;19.30;99.90
17968;DHT22;9109;48.050;11.696;2023-07-13T04:54:00;19.30;99.90
17968;DHT22;9109;48.050;11.696;2023-07-13T04:57:03;19.20;99.90
17968;DHT22;9109;48.050;11.696;2023-07-13T05:00:07;19.30;99.90
17968;DHT22;9109;48.050;11.696;2023-07-13T05:03:10;19.40;99.90
17968;DHT22;9109;48.050;11.696;2023-07-13T05:06:12;19.40;99.90
17968;DHT22;9109;48.050;11.696;2023-07-13T05:09:16;19.40;99.90
17968;DHT22;9109;48.050;11.696;2023-07-13T05:12:18;19.40;99.90
17968;DHT22;9109;48.050;11.696;2023-07-13T05:15:21;19.40;99.90
17968;DHT22;9109;48.050;11.696;2023-07-13T05:18:23;19.20;99.90
17968;DHT22;9109;48.050;11.696;2023-07-13T05:21:25;19.30;99.90
17968;DHT22;9109;48.050;11.696;2023-07-13T05:24:29;19.40;99.90
17968;DHT22;9109;48.050;11.696;2023-07-13T05:27:31;19.30;99.90
17968;DHT22;9109;48.050;11.696;2023-07-13T05:30:33;19.40;99.90
17968;DHT22;9109;48.050;11.696;2023-07-13T05:33:35;19.50;99.90
17968;DHT22;9109;48.050;11.696;2023-07-13T05:36:37;19.40;99.90
17968;DHT22;9109;48.050;11.696;2023-07-13T05:39:41;19.40;99.90
17968;DHT22;9109;48.050;11.696;2023-07-13T05:42:42;19.40;99.90
17968;DHT22;9109;48.050;11.696;2023-07-13T05:45:44;19.40;99.90
17968;DHT22;9109;48.050;11.696;2023-07-13T05:48:46;19.40;99.90
17968;DHT22;9109;48.050;11.696;2023-07-13T05:51:48;19.40;99.90
17968;DHT22;9109;48.050;11.696;2023-07-13T05:54:52;19.40;99.90
17968;DHT22;9109;48.050;11.696;2023-07-13T05:57:53;19.40;99.90
17968;DHT22;9109;48.050;11.696;2023-07-13T06:01:02;19.40;99.90
17968;DHT22;9109;48.050;11.696;2023-07-13T06:04:04;19.50;99.90
17968;DHT22;9109;48.050;11.696;2023-07-13T06:07:06;19.50;99.90
17968;DHT22;9109;48.050;11.696;2023-07-13T06:10:10;19.60;99.90
17968;DHT22;9109;48.050;11.696;2023-07-13T06:13:12;19.70;99.90
17968;DHT22;9109;48.050;11.696;2023-07-13T06:16:14;19.70;99.90
17968;DHT22;9109;48.050;11.696;2023-07-13T06:19:17;19.80;99.90
17968;DHT22;9109;48.050;11.696;2023-07-13T06:22:19;19.90;99.90
17968;DHT22;9109;48.050;11.696;2023-07-13T06:25:22;19.80;99.90
17968;DHT22;9109;48.050;11.696;2023-07-13T06:28:24;19.80;99.90
17968;DHT22;9109;48.050;11.696;2023-07-13T06:31:26;19.70;99.90
17968;DHT22;9109;48.050;11.696;2023-07-13T06:34:28;19.70;99.90
17968;DHT22;9109;48.050;11.696;2023-07-13T06:37:30;19.60;99.90
17968;DHT22;9109;48.050;11.696;2023-07-13T06:40:33;19.60;99.90
17968;DHT22;9109;48.050;11.696;2023-07-13T06:43:35;19.60;99.90
17968;DHT22;9109;48.050;11.696;2023-07-13T06:46:37;19.60;99.90
17968;DHT22;9109;48.050;11.696;2023-07-13T06:49:39;19.60;99.90
17968;DHT22;9109;48.050;11.696;2023-07-13T06:52:41;19.60;99.90
17968;DHT22;9109;48.050;11.696;2023-07-13T06:55:44;19.60;99.90
17968;DHT22;9109;48.050;11.696;2023-07-13T06:58:46;19.70;99.90
17968;DHT22;9109;48.050;11.696;2023-07-13T07:01:48;19.70;99.90
17968;DHT22;9109;48.050;11.696;2023-07-13T07:04:50;19.70;99.90
17968;DHT22;9109;48.050;11.696;2023-07-13T07:07:54;19.70;99.90
17968;DHT22;9109;48.050;11.696;2023-07-13T07:10:58;19.70;99.90
17968;DHT22;9109;48.050;11.696;2023-07-13T07:14:00;19.70;99.90
17968;DHT22;9109;48.050;11.696;2023-07-13T07:17:02;19.70;99.90
17968;DHT22;9109;48.050;11.696;2023-07-13T07:20:04;19.70;99.90
17968;DHT22;9109;48.050;11.696;2023-07-13T07:23:07;19.80;99.90
17968;DHT22;9109;48.050;11.696;2023-07-13T07:26:10;19.80;99.90
17968;DHT22;9109;48.050;11.696;2023-07-13T07:29:12;19.80;99.90
17968;DHT22;9109;48.050;11.696;2023-07-13T07:32:14;19.90;99.90
17968;DHT22;9109;48.050;11.696;2023-07-13T07:35:16;20.00;99.90
17968;DHT22;9109;48.050;11.696;2023-07-13T07:38:18;20.00;99.90
17968;DHT22;9109;48.050;11.696;2023-07-13T07:41:21;20.00;99.90
17968;DHT22;9109;48.050;11.696;2023-07-13T07:44:23;20.00;99.90
17968;DHT22;9109;48.050;11.696;2023-07-13T07:47:27;19.90;99.90
17968;DHT22;9109;48.050;11.696;2023-07-13T07:50:29;19.70;99.90
17968;DHT22;9109;48.050;11.696;2023-07-13T07:53:31;19.70;99.90
17968;DHT22;9109;48.050;11.696;2023-07-13T07:56:35;19.60;99.90
17968;DHT22;9109;48.050;11.696;2023-07-13T07:59:37;19.60;99.90
17968;DHT22;9109;48.050;11.696;2023-07-13T08:02:39;19.60;99.90
17968;DHT22;9109;48.050;11.696;2023-07-13T08:05:41;19.60;99.90
17968;DHT22;9109;48.050;11.696;2023-07-13T08:08:43;19.60;99.90
17968;DHT22;9109;48.050;11.696;2023-07-13T08:11:47;19.70;99.90
17968;DHT22;9109;48.050;11.696;2023-07-13T08:14:50;19.70;99.90
17968;DHT22;9109;48.050;11.696;2023-07-13T08:17:54;19.70;99.90
17968;DHT22;9109;48.050;11.696;2023-07-13T08:20:56;19.60;99.90
17968;DHT22;9109;48.050;11.696;2023-07-13T08:23:59;19.70;99.90
17968;DHT22;9109;48.050;11.696;2023-07-13T08:27:02;19.70;99.90
17968;DHT22;9109;48.050;11.696;2023-07-13T08:30:05;19.60;99.90
17968;DHT22;9109;48.050;11.696;2023-07-13T08:33:08;19.50;99.90
17968;DHT22;9109;48.050;11.696;2023-07-13T08:36:10;19.50;99.90
17968;DHT22;9109;48.050;11.696;2023-07-13T08:39:12;19.40;99.90
17968;DHT22;9109;48.050;11.696;2023-07-13T08:42:22;19.40;99.90
17968;DHT22;9109;48.050;11.696;2023-07-13T08:45:33;19.40;99.90
17968;DHT22;9109;48.050;11.696;2023-07-13T08:48:41;19.40;99.90
17968;DHT22;9109;48.050;11.696;2023-07-13T08:51:46;19.40;99.90
17968;DHT22;9109;48.050;11.696;2023-07-13T08:54:51;19.40;99.90
17968;DHT22;9109;48.050;11.696;2023-07-13T08:58:00;19.50;99.90
17968;DHT22;9109;48.050;11.696;2023-07-13T09:01:10;19.50;99.90
17968;DHT22;9109;48.050;11.696;2023-07-13T09:04:18;19.50;99.90
17968;DHT22;9109;48.050;11.696;2023-07-13T09:07:39;19.50;99.90
17968;DHT22;9109;48.050;11.696;2023-07-13T09:10:46;19.60;99.90
17968;DHT22;9109;48.050;11.696;2023-07-13T09:13:55;19.50;99.90
17968;DHT22;9109;48.050;11.696;2023-07-13T09:16:59;19.50;99.90
17968;DHT22;9109;48.050;11.696;2023-07-13T09:20:04;19.40;99.90
17968;DHT22;9109;48.050;11.696;2023-07-13T09:23:14;19.40;99.90
17968;DHT22;9109;48.050;11.696;2023-07-13T09:26:20;19.40;99.90
17968;DHT22;9109;48.050;11.696;2023-07-13T09:29:28;19.60;99.90
17968;DHT22;9109;48.050;11.696;2023-07-13T09:32:31;19.60;99.90
17968;DHT22;9109;48.050;11.696;2023-07-13T09:35:35;19.60;99.90
17968;DHT22;9109;48.050;11.696;2023-07-13T09:38:37;19.60;99.90
17968;DHT22;9109;48.050;11.696;2023-07-13T09:41:43;19.60;99.90
17968;DHT22;9109;48.050;11.696;2023-07-13T09:44:55;19.40;99.90
17968;DHT22;9109;48.050;11.696;2023-07-13T09:48:04;19.40;99.90
17968;DHT22;9109;48.050;11.696;2023-07-13T09:51:13;19.50;99.90
17968;DHT22;9109;48.050;11.696;2023-07-13T09:54:20;19.60;99.90
17968;DHT22;9109;48.050;11.696;2023-07-13T09:57:27;19.60;99.90
17968;DHT22;9109;48.050;11.696;2023-07-13T10:00:31;19.70;99.90
17968;DHT22;9109;48.050;11.696;2023-07-13T10:03:34;19.80;99.90
17968;DHT22;9109;48.050;11.696;2023-07-13T10:06:39;19.80;99.90
17968;DHT22;9109;48.050;11.696;2023-07-13T10:09:43;19.80;99.90
17968;DHT22;9109;48.050;11.696;2023-07-13T10:12:45;19.90;99.90
17968;DHT22;9109;48.050;11.696;2023-07-13T10:15:48;19.90;99.90
17968;DHT22;9109;48.050;11.696;2023-07-13T10:18:55;19.90;99.90
17968;DHT22;9109;48.050;11.696;2023-07-13T10:21:58;19.90;99.90
17968;DHT22;9109;48.050;11.696;2023-07-13T10:25:01;20.00;99.90
17968;DHT22;9109;48.050;11.696;2023-07-13T10:28:11;20.10;99.90
17968;DHT22;9109;48.050;11.696;2023-07-13T10:31:18;20.20;99.90
17968;DHT22;9109;48.050;11.696;2023-07-13T10:34:21;20.40;99.90
17968;DHT22;9109;48.050;11.696;2023-07-13T10:37:27;20.50;99.90
17968;DHT22;9109;48.050;11.696;2023-07-13T10:40:35;20.50;99.90
17968;DHT22;9109;48.050;11.696;2023-07-13T10:43:42;20.50;99.90
17968;DHT22;9109;48.050;11.696;2023-07-13T10:46:48;20.50;99.90
17968;DHT22;9109;48.050;11.696;2023-07-13T10:49:54;20.60;99.90
17968;DHT22;9109;48.050;11.696;2023-07-13T10:53:02;20.80;99.90
17968;DHT22;9109;48.050;11.696;2023-07-13T10:56:08;21.00;99.90
17968;DHT22;9109;48.050;11.696;2023-07-13T10:59:23;21.10;99.90
17968;DHT22;9109;48.050;11.696;2023-07-13T11:02:28;21.10;99.90
17968;DHT22;9109;48.050;11.696;2023-07-13T11:05:32;21.40;99.90
17968;DHT22;9109;48.050;11.696;2023-07-13T11:08:37;21.60;99.90
17968;DHT22;9109;48.050;11.696;2023-07-13T11:11:39;21.80;99.90
17968;DHT22;9109;48.050;11.696;2023-07-13T11:15:01;21.80;99.90
17968;DHT22;9109;48.050;11.696;2023-07-13T11:18:20;21.90;99.90
17968;DHT22;9109;48.050;11.696;2023-07-13T11:21:25;22.10;99.90
17968;DHT22;9109;48.050;11.696;2023-07-13T11:24:49;22.20;99.90
17968;DHT22;9109;48.050;11.696;2023-07-13T11:28:03;22.20;99.90
17968;DHT22;9109;48.050;11.696;2023-07-13T11:31:15;22.20;99.60
17968;DHT22;9109;48.050;11.696;2023-07-13T11:34:21;22.10;95.00
17968;DHT22;9109;48.050;11.696;2023-07-13T11:37:26;22.40;99.50
17968;DHT22;9109;48.050;11.696;2023-07-13T11:40:30;22.60;98.10
17968;DHT22;9109;48.050;11.696;2023-07-13T11:43:32;22.80;99.30
17968;DHT22;9109;48.050;11.696;2023-07-13T11:46:35;22.90;97.40
17968;DHT22;9109;48.050;11.696;2023-07-13T11:49:42;23.10;98.20
17968;DHT22;9109;48.050;11.696;2023-07-13T11:52:45;23.20;95.90
17968;DHT22;9109;48.050;11.696;2023-07-13T11:55:47;23.10;95.90
17968;DHT22;9109;48.050;11.696;2023-07-13T11:58:53;23.30;96.90
17968;DHT22;9109;48.050;11.696;2023-07-13T12:01:57;23.50;95.30
17968;DHT22;9109;48.050;11.696;2023-07-13T12:05:02;23.50;90.80
17968;DHT22;9109;48.050;11.696;2023-07-13T12:08:09;23.50;90.50
17968;DHT22;9109;48.050;11.696;2023-07-13T12:11:16;23.40;88.90
17968;DHT22;9109;48.050;11.696;2023-07-13T12:14:19;23.40;90.50
17968;DHT22;9109;48.050;11.696;2023-07-13T12:17:22;23.40;92.70
17968;DHT22;9109;48.050;11.696;2023-07-13T12:20:27;23.00;89.10
17968;DHT22;9109;48.050;11.696;2023-07-13T12:23:34;22.90;93.20
17968;DHT22;9109;48.050;11.696;2023-07-13T12:26:36;22.90;93.00
17968;DHT22;9109;48.050;11.696;2023-07-13T12:29:38;22.80;91.90
17968;DHT22;9109;48.050;11.696;2023-07-13T12:32:40;22.70;89.20
17968;DHT22;9109;48.050;11.696;2023-07-13T12:35:46;22.60;87.60
17968;DHT22;9109;48.050;11.696;2023-07-13T12:38:49;22.60;82.40
17968;DHT22;9109;48.050;11.696;2023-07-13T12:41:52;23.00;90.20
17968;DHT22;9109;48.050;11.696;2023-07-13T12:44:57;23.40;88.90
17968;DHT22;9109;48.050;11.696;2023-07-13T12:48:05;23.70;83.00
17968;DHT22;9109;48.050;11.696;2023-07-13T12:51:11;23.60;78.20
17968;DHT22;9109;48.050;11.696;2023-07-13T12:54:16;23.40;80.40
17968;DHT22;9109;48.050;11.696;2023-07-13T12:57:18;23.40;81.00
17968;DHT22;9109;48.050;11.696;2023-07-13T13:00:23;23.60;85.30
17968;DHT22;9109;48.050;11.696;2023-07-13T13:03:30;23.90;86.80
17968;DHT22;9109;48.050;11.696;2023-07-13T13:06:34;24.10;82.30
17968;DHT22;9109;48.050;11.696;2023-07-13T13:09:37;24.00;75.20
17968;DHT22;9109;48.050;11.696;2023-07-13T13:12:39;24.00;79.90
17968;DHT22;9109;48.050;11.696;2023-07-13T13:15:42;24.20;82.80
17968;DHT22;9109;48.050;11.696;2023-07-13T13:18:44;24.40;80.20
17968;DHT22;9109;48.050;11.696;2023-07-13T13:21:48;24.30;74.30
17968;DHT22;9109;48.050;11.696;2023-07-13T13:24:52;24.10;77.90
17968;DHT22;9109;48.050;11.696;2023-07-13T13:27:54;24.20;78.30
17968;DHT22;9109;48.050;11.696;2023-07-13T13:30:57;24.30;82.50
17968;DHT22;9109;48.050;11.696;2023-07-13T13:33:59;24.30;81.30
17968;DHT22;9109;48.050;11.696;2023-07-13T13:37:02;24.10;81.20
17968;DHT22;9109;48.050;11.696;2023-07-13T13:40:13;23.90;80.50
17968;DHT22;9109;48.050;11.696;2023-07-13T13:43:16;23.90;79.50
17968;DHT22;9109;48.050;11.696;2023-07-13T13:46:20;23.80;77.40
17968;DHT22;9109;48.050;11.696;2023-07-13T13:49:26;23.70;83.20
17968;DHT22;9109;48.050;11.696;2023-07-13T13:52:30;23.70;85.40
17968;DHT22;9109;48.050;11.696;2023-07-13T13:55:32;23.70;85.10
17968;DHT22;9109;48.050;11.696;2023-07-13T13:58:35;23.60;83.40
17968;DHT22;9109;48.050;11.696;2023-07-13T14:01:38;23.60;83.20
17968;DHT22;9109;48.050;11.696;2023-07-13T14:04:40;23.50;82.20
17968;DHT22;9109;48.050;11.696;2023-07-13T14:07:43;23.50;84.80
17968;DHT22;9109;48.050;11.696;2023-07-13T14:10:48;23.60;83.70
17968;DHT22;9109;48.050;11.696;2023-07-13T14:13:53;23.80;84.80
17968;DHT22;9109;48.050;11.696;2023-07-13T14:16:56;23.80;86.00
17968;DHT22;9109;48.050;11.696;2023-07-13T14:19:58;23.60;81.90
17968;DHT22;9109;48.050;11.696;2023-07-13T14:23:01;23.40;79.80
17968;DHT22;9109;48.050;11.696;2023-07-13T14:26:07;23.40;85.80
17968;DHT22;9109;48.050;11.696;2023-07-13T14:29:13;23.50;87.60
17968;DHT22;9109;48.050;11.696;2023-07-13T14:32:17;23.60;81.00
17968;DHT22;9109;48.050;11.696;2023-07-13T14:35:21;23.60;82.00
17968;DHT22;9109;48.050;11.696;2023-07-13T14:38:25;23.90;82.90
17968;DHT22;9109;48.050;11.696;2023-07-13T14:41:27;24.20;78.70
17968;DHT22;9109;48.050;11.696;2023-07-13T14:44:31;24.30;78.50
17968;DHT22;9109;48.050;11.696;2023-07-13T14:47:33;24.40;79.40
17968;DHT22;9109;48.050;11.696;2023-07-13T14:50:35;24.60;82.30
17968;DHT22;9109;48.050;11.696;2023-07-13T14:53:40;24.40;82.00
17968;DHT22;9109;48.050;11.696;2023-07-13T14:56:42;24.30;82.20
17968;DHT22;9109;48.050;11.696;2023-07-13T14:59:44;24.30;83.50
17968;DHT22;9109;48.050;11.696;2023-07-13T15:02:48;24.50;82.80
17968;DHT22;9109;48.050;11.696;2023-07-13T15:05:52;24.50;82.20
17968;DHT22;9109;48.050;11.696;2023-07-13T15:08:55;24.70;83.80
17968;DHT22;9109;48.050;11.696;2023-07-13T15:11:58;24.60;77.00
17968;DHT22;9109;48.050;11.696;2023-07-13T15:15:00;24.60;77.60
17968;DHT22;9109;48.050;11.696;2023-07-13T15:18:02;24.70;78.70
17968;DHT22;9109;48.050;11.696;2023-07-13T15:21:04;24.60;80.30
17968;DHT22;9109;48.050;11.696;2023-07-13T15:24:10;24.50;82.30
17968;DHT22;9109;48.050;11.696;2023-07-13T15:27:13;24.40;82.30
17968;DHT22;9109;48.050;11.696;2023-07-13T15:30:15;24.50;79.30
17968;DHT22;9109;48.050;11.696;2023-07-13T15:33:21;24.60;82.30
17968;DHT22;9109;48.050;11.696;2023-07-13T15:36:25;24.50;78.20
17968;DHT22;9109;48.050;11.696;2023-07-13T15:39:28;24.50;77.80
17968;DHT22;9109;48.050;11.696;2023-07-13T15:42:32;24.40;75.90
17968;DHT22;9109;48.050;11.696;2023-07-13T15:45:33;24.30;72.30
17968;DHT22;9109;48.050;11.696;2023-07-13T15:48:35;24.40;78.50
17968;DHT22;9109;48.050;11.696;2023-07-13T15:51:37;24.40;76.30
17968;DHT22;9109;48.050;11.696;2023-07-13T15:54:41;24.40;74.90
17968;DHT22;9109;48.050;11.696;2023-07-13T15:57:46;24.30;73.10
17968;DHT22;9109;48.050;11.696;2023-07-13T16:00:48;24.20;74.40
17968;DHT22;9109;48.050;11.696;2023-07-13T16:03:52;24.10;72.50
17968;DHT22;9109;48.050;11.696;2023-07-13T16:06:54;24.00;75.00
17968;DHT22;9109;48.050;11.696;2023-07-13T16:09:57;24.10;76.10
17968;DHT22;9109;48.050;11.696;2023-07-13T16:12:59;24.10;73.90
17968;DHT22;9109;48.050;11.696;2023-07-13T16:16:01;24.20;72.50
17968;DHT22;9109;48.050;11.696;2023-07-13T16:19:11;24.30;75.80
17968;DHT22;9109;48.050;11.696;2023-07-13T16:22:15;24.10;74.10
17968;DHT22;9109;48.050;11.696;2023-07-13T16:25:21;24.10;76.20
17968;DHT22;9109;48.050;11.696;2023-07-13T16:28:24;24.00;75.60
17968;DHT22;9109;48.050;11.696;2023-07-13T16:31:29;24.10;75.80
17968;DHT22;9109;48.050;11.696;2023-07-13T16:34:33;24.00;72.70
17968;DHT22;9109;48.050;11.696;2023-07-13T16:37:35;24.10;71.90
17968;DHT22;9109;48.050;11.696;2023-07-13T16:40:41;24.20;72.10
17968;DHT22;9109;48.050;11.696;2023-07-13T16:43:43;24.20;73.40
17968;DHT22;9109;48.050;11.696;2023-07-13T16:46:46;24.10;75.20
17968;DHT22;9109;48.050;11.696;2023-07-13T16:49:50;24.10;74.30
17968;DHT22;9109;48.050;11.696;2023-07-13T16:52:53;24.10;73.70
17968;DHT22;9109;48.050;11.696;2023-07-13T16:56:00;24.20;76.40
17968;DHT22;9109;48.050;11.696;2023-07-13T16:59:12;24.10;74.40
17968;DHT22;9109;48.050;11.696;2023-07-13T17:02:31;24.10;75.70
17968;DHT22;9109;48.050;11.696;2023-07-13T17:05:36;24.00;76.10
17968;DHT22;9109;48.050;11.696;2023-07-13T17:08:41;23.90;74.80
17968;DHT22;9109;48.050;11.696;2023-07-13T17:11:44;23.80;73.70
17968;DHT22;9109;48.050;11.696;2023-07-13T17:14:46;23.80;73.10
17968;DHT22;9109;48.050;11.696;2023-07-13T17:17:49;23.80;75.20
17968;DHT22;9109;48.050;11.696;2023-07-13T17:20:52;23.70;77.50
17968;DHT22;9109;48.050;11.696;2023-07-13T17:23:54;23.70;77.20
17968;DHT22;9109;48.050;11.696;2023-07-13T17:26:58;23.60;76.70
17968;DHT22;9109;48.050;11.696;2023-07-13T17:30:00;23.60;76.60
17968;DHT22;9109;48.050;11.696;2023-07-13T17:33:04;23.50;75.30
17968;DHT22;9109;48.050;11.696;2023-07-13T17:36:11;23.50;75.70
17968;DHT22;9109;48.050;11.696;2023-07-13T17:39:16;23.40;76.40
17968;DHT22;9109;48.050;11.696;2023-07-13T17:42:20;23.40;76.70
17968;DHT22;9109;48.050;11.696;2023-07-13T17:45:23;23.30;76.40
17968;DHT22;9109;48.050;11.696;2023-07-13T17:48:28;23.20;77.00
17968;DHT22;9109;48.050;11.696;2023-07-13T17:51:30;23.10;78.10
17968;DHT22;9109;48.050;11.696;2023-07-13T17:54:32;23.00;76.90
17968;DHT22;9109;48.050;11.696;2023-07-13T17:57:35;23.00;77.60
17968;DHT22;9109;48.050;11.696;2023-07-13T18:00:39;22.90;77.60
17968;DHT22;9109;48.050;11.696;2023-07-13T18:03:44;22.90;77.60
17968;DHT22;9109;48.050;11.696;2023-07-13T18:06:46;22.80;78.30
17968;DHT22;9109;48.050;11.696;2023-07-13T18:09:53;22.80;78.20
17968;DHT22;9109;48.050;11.696;2023-07-13T18:12:57;22.70;79.50
17968;DHT22;9109;48.050;11.696;2023-07-13T18:15:59;22.70;80.10
17968;DHT22;9109;48.050;11.696;2023-07-13T18:19:02;22.60;79.90
17968;DHT22;9109;48.050;11.696;2023-07-13T18:22:10;22.60;80.90
17968;DHT22;9109;48.050;11.696;2023-07-13T18:25:13;22.60;81.70
17968;DHT22;9109;48.050;11.696;2023-07-13T18:28:17;22.50;82.30
17968;DHT22;9109;48.050;11.696;2023-07-13T18:31:21;22.40;83.20
17968;DHT22;9109;48.050;11.696;2023-07-13T18:34:28;22.40;83.80
17968;DHT22;9109;48.050;11.696;2023-07-13T18:37:37;22.30;84.40
17968;DHT22;9109;48.050;11.696;2023-07-13T18:40:41;22.20;84.50
17968;DHT22;9109;48.050;11.696;2023-07-13T18:43:49;22.20;84.40
17968;DHT22;9109;48.050;11.696;2023-07-13T18:46:56;22.20;84.80
17968;DHT22;9109;48.050;11.696;2023-07-13T18:49:57;22.20;86.40
17968;DHT22;9109;48.050;11.696;2023-07-13T18:53:03;22.10;87.90
17968;DHT22;9109;48.050;11.696;2023-07-13T18:56:05;22.10;89.00
17968;DHT22;9109;48.050;11.696;2023-07-13T18:59:09;22.00;89.30
17968;DHT22;9109;48.050;11.696;2023-07-13T19:02:12;22.00;90.00
17968;DHT22;9109;48.050;11.696;2023-07-13T19:05:16;21.90;89.70
17968;DHT22;9109;48.050;11.696;2023-07-13T19:08:20;21.90;90.10
17968;DHT22;9109;48.050;11.696;2023-07-13T19:11:22;21.80;90.70
17968;DHT22;9109;48.050;11.696;2023-07-13T19:14:26;21.70;91.00
17968;DHT22;9109;48.050;11.696;2023-07-13T19:17:28;21.80;91.00
17968;DHT22;9109;48.050;11.696;2023-07-13T19:20:30;21.70;91.20
17968;DHT22;9109;48.050;11.696;2023-07-13T19:23:35;21.70;91.70
17968;DHT22;9109;48.050;11.696;2023-07-13T19:26:39;21.60;92.40
17968;DHT22;9109;48.050;11.696;2023-07-13T19:29:42;21.60;92.50
17968;DHT22;9109;48.050;11.696;2023-07-13T19:39:12;21.50;94.40
17968;DHT22;9109;48.050;11.696;2023-07-13T19:42:22;21.40;94.90
17968;DHT22;9109;48.050;11.696;2023-07-13T19:45:27;21.40;95.30
17968;DHT22;9109;48.050;11.696;2023-07-13T19:48:30;21.40;95.90
17968;DHT22;9109;48.050;11.696;2023-07-13T19:51:34;21.40;95.90
17968;DHT22;9109;48.050;11.696;2023-07-13T19:54:37;21.30;96.00
17968;DHT22;9109;48.050;11.696;2023-07-13T19:57:41;21.30;96.70
17968;DHT22;9109;48.050;11.696;2023-07-13T20:00:48;21.30;97.30
17968;DHT22;9109;48.050;11.696;2023-07-13T20:03:50;21.30;97.60
17968;DHT22;9109;48.050;11.696;2023-07-13T20:06:52;21.20;98.00
17968;DHT22;9109;48.050;11.696;2023-07-13T20:09:54;21.20;98.50
17968;DHT22;9109;48.050;11.696;2023-07-13T20:12:58;21.20;99.20
17968;DHT22;9109;48.050;11.696;2023-07-13T20:16:02;21.20;99.50
17968;DHT22;9109;48.050;11.696;2023-07-13T20:19:04;21.20;99.80
17968;DHT22;9109;48.050;11.696;2023-07-13T20:22:09;21.20;99.80
17968;DHT22;9109;48.050;11.696;2023-07-13T20:25:18;21.20;99.90
17968;DHT22;9109;48.050;11.696;2023-07-13T20:28:29;21.20;99.90
17968;DHT22;9109;48.050;11.696;2023-07-13T20:31:40;21.10;99.90
17968;DHT22;9109;48.050;11.696;2023-07-13T20:34:53;21.10;99.90
17968;DHT22;9109;48.050;11.696;2023-07-13T20:37:55;21.10;99.90
17968;DHT22;9109;48.050;11.696;2023-07-13T20:40:58;21.10;99.90
17968;DHT22;9109;48.050;11.696;2023-07-13T20:44:00;21.00;99.90
17968;DHT22;9109;48.050;11.696;2023-07-13T20:47:04;21.00;99.90
17968;DHT22;9109;48.050;11.696;2023-07-13T20:50:15;21.00;99.90
17968;DHT22;9109;48.050;11.696;2023-07-13T20:53:19;20.90;99.90
17968;DHT22;9109;48.050;11.696;2023-07-13T20:56:23;20.80;99.90
17968;DHT22;9109;48.050;11.696;2023-07-13T20:59:25;20.80;99.90
17968;DHT22;9109;48.050;11.696;2023-07-13T21:02:31;20.70;99.90
17968;DHT22;9109;48.050;11.696;2023-07-13T21:05:36;20.80;99.90
17968;DHT22;9109;48.050;11.696;2023-07-13T21:08:38;20.70;99.90
17968;DHT22;9109;48.050;11.696;2023-07-13T21:11:40;20.70;99.90
17968;DHT22;9109;48.050;11.696;2023-07-13T21:14:42;20.70;99.90
17968;DHT22;9109;48.050;11.696;2023-07-13T21:17:48;20.70;99.90
17968;DHT22;9109;48.050;11.696;2023-07-13T21:20:52;20.70;99.90
17968;DHT22;9109;48.050;11.696;2023-07-13T21:23:54;20.60;99.90
17968;DHT22;9109;48.050;11.696;2023-07-13T21:26:57;20.60;99.90
17968;DHT22;9109;48.050;11.696;2023-07-13T21:29:59;20.60;99.90
17968;DHT22;9109;48.050;11.696;2023-07-13T21:33:03;20.60;99.90
17968;DHT22;9109;48.050;11.696;2023-07-13T21:36:06;20.60;99.90
17968;DHT22;9109;48.050;11.696;2023-07-13T21:39:11;20.60;99.90
17968;DHT22;9109;48.050;11.696;2023-07-13T21:42:16;20.60;99.90
17968;DHT22;9109;48.050;11.696;2023-07-13T21:45:19;20.60;99.90
17968;DHT22;9109;48.050;11.696;2023-07-13T21:48:24;20.60;99.90
17968;DHT22;9109;48.050;11.696;2023-07-13T21:51:27;20.40;99.90
17968;DHT22;9109;48.050;11.696;2023-07-13T21:54:30;20.40;99.90
17968;DHT22;9109;48.050;11.696;2023-07-13T21:57:32;20.30;99.90
17968;DHT22;9109;48.050;11.696;2023-07-13T22:00:34;20.20;99.90
17968;DHT22;9109;48.050;11.696;2023-07-13T22:03:38;20.20;99.90
17968;DHT22;9109;48.050;11.696;2023-07-13T22:06:42;20.20;99.90
17968;DHT22;9109;48.050;11.696;2023-07-13T22:09:44;20.20;99.90
17968;DHT22;9109;48.050;11.696;2023-07-13T22:12:47;20.20;99.90
17968;DHT22;9109;48.050;11.696;2023-07-13T22:15:49;20.20;99.90
17968;DHT22;9109;48.050;11.696;2023-07-13T22:18:58;20.20;99.90
17968;DHT22;9109;48.050;11.696;2023-07-13T22:22:01;20.10;99.90
17968;DHT22;9109;48.050;11.696;2023-07-13T22:25:04;20.10;99.90
17968;DHT22;9109;48.050;11.696;2023-07-13T22:28:09;20.00;99.90
17968;DHT22;9109;48.050;11.696;2023-07-13T22:31:13;20.00;99.90
17968;DHT22;9109;48.050;11.696;2023-07-13T22:34:18;19.90;99.90
17968;DHT22;9109;48.050;11.696;2023-07-13T22:37:21;19.90;99.90
17968;DHT22;9109;48.050;11.696;2023-07-13T22:40:23;19.90;99.90
17968;DHT22;9109;48.050;11.696;2023-07-13T22:43:26;19.90;99.90
17968;DHT22;9109;48.050;11.696;2023-07-13T22:46:31;19.80;99.90
17968;DHT22;9109;48.050;11.696;2023-07-13T22:49:35;19.80;99.90
17968;DHT22;9109;48.050;11.696;2023-07-13T22:52:37;19.70;99.90
17968;DHT22;9109;48.050;11.696;2023-07-13T22:55:42;19.70;99.90
17968;DHT22;9109;48.050;11.696;2023-07-13T22:58:44;19.70;99.90
